createdAt,value
2023-02-15T00:00:25.936Z,-0.28
2023-02-15T00:03:17.778Z,-0.28
2023-02-15T00:05:46.141Z,-0.28
2023-02-15T00:08:14.491Z,-0.28
2023-02-15T00:10:43.125Z,-0.28
2023-02-15T00:13:11.619Z,-0.29
2023-02-15T00:15:39.940Z,-0.30
2023-02-15T00:18:08.362Z,-0.30
2023-02-15T00:20:36.707Z,-0.31
2023-02-15T00:23:04.997Z,-0.31
2023-02-15T00:25:33.409Z,-0.31
2023-02-15T00:28:01.728Z,-0.33
2023-02-15T00:30:30.131Z,-0.34
2023-02-15T00:32:58.541Z,-0.35
2023-02-15T00:35:26.872Z,-0.36
2023-02-15T00:37:55.278Z,-0.38
2023-02-15T00:40:23.690Z,-0.39
2023-02-15T00:42:52.034Z,-0.40
2023-02-15T00:45:22.238Z,-0.41
2023-02-15T00:47:50.658Z,-0.43
2023-02-15T00:50:18.974Z,-0.45
2023-02-15T00:52:47.296Z,-0.48
2023-02-15T00:55:15.640Z,-0.51
2023-02-15T00:57:43.951Z,-0.54
2023-02-15T01:00:13.413Z,-0.57
2023-02-15T01:02:41.795Z,-0.60
2023-02-15T01:05:10.258Z,-0.62
2023-02-15T01:07:38.570Z,-0.63
2023-02-15T01:10:08.592Z,-0.64
2023-02-15T01:12:36.961Z,-0.66
2023-02-15T01:15:05.736Z,-0.68
2023-02-15T01:17:34.122Z,-0.69
2023-02-15T01:20:03.024Z,-0.72
2023-02-15T01:22:31.464Z,-0.73
2023-02-15T01:24:59.772Z,-0.75
2023-02-15T01:27:31.425Z,-0.76
2023-02-15T01:29:59.772Z,-0.78
2023-02-15T01:32:28.220Z,-0.79
2023-02-15T01:34:56.600Z,-0.80
2023-02-15T01:37:24.940Z,-0.82
2023-02-15T01:39:54.571Z,-0.82
2023-02-15T01:42:24.747Z,-0.83
2023-02-15T01:45:02.248Z,-0.83
2023-02-15T01:47:58.511Z,-0.84
2023-02-15T01:50:39.664Z,-0.84
2023-02-15T01:53:19.923Z,-0.87
2023-02-15T01:56:00.642Z,-0.88
2023-02-15T01:58:30.504Z,-0.90
2023-02-15T02:01:02.046Z,-0.90
2023-02-15T02:04:14.501Z,-0.91
2023-02-15T02:06:42.965Z,-0.92
2023-02-15T02:09:11.710Z,-0.95
2023-02-15T02:11:41.640Z,-0.97
2023-02-15T02:14:10.031Z,-1.00
2023-02-15T02:17:12.993Z,-1.02
2023-02-15T02:19:50.431Z,-1.06
2023-02-15T02:23:00.017Z,-1.09
2023-02-15T02:26:10.545Z,-1.11
2023-02-15T02:29:24.022Z,-1.13
2023-02-15T02:32:35.139Z,-1.13
2023-02-15T02:35:33.953Z,-1.14
2023-02-15T02:38:11.614Z,-1.16
2023-02-15T02:41:01.983Z,-1.18
2023-02-15T02:43:41.908Z,-1.19
2023-02-15T02:46:21.492Z,-1.21
2023-02-15T02:48:50.895Z,-1.22
2023-02-15T02:51:22.501Z,-1.22
2023-02-15T02:54:01.137Z,-1.23
2023-02-15T02:56:48.761Z,-1.24
2023-02-15T02:59:23.180Z,-1.26
2023-02-15T03:02:14.102Z,-1.28
2023-02-15T03:04:59.618Z,-1.30
2023-02-15T03:07:29.820Z,-1.31
2023-02-15T03:10:01.651Z,-1.33
2023-02-15T03:12:37.354Z,-1.36
2023-02-15T03:15:21.555Z,-1.38
2023-02-15T03:17:58.662Z,-1.39
2023-02-15T03:20:34.091Z,-1.40
2023-02-15T03:23:18.102Z,-1.40
2023-02-15T03:25:53.073Z,-1.39
2023-02-15T03:28:29.841Z,-1.38
2023-02-15T03:31:01.409Z,-1.37
2023-02-15T03:33:30.777Z,-1.35
2023-02-15T03:36:20.931Z,-1.33
2023-02-15T03:38:54.130Z,-1.33
2023-02-15T03:41:26.769Z,-1.32
2023-02-15T03:44:07.832Z,-1.30
2023-02-15T03:47:06.916Z,-1.29
2023-02-15T03:50:51.491Z,-1.27
2023-02-15T03:53:23.636Z,-1.25
2023-02-15T03:55:55.917Z,-1.25
2023-02-15T03:58:42.795Z,-1.27
2023-02-15T04:01:58.177Z,-1.31
2023-02-15T04:04:34.819Z,-1.36
2023-02-15T04:07:06.216Z,-1.38
2023-02-15T04:09:53.090Z,-1.39
2023-02-15T04:12:21.766Z,-1.39
2023-02-15T04:15:08.747Z,-1.39
2023-02-15T04:17:38.997Z,-1.39
2023-02-15T04:20:28.097Z,-1.39
2023-02-15T04:23:15.139Z,-1.38
2023-02-15T04:25:43.508Z,-1.37
2023-02-15T04:28:11.863Z,-1.36
2023-02-15T04:30:40.184Z,-1.36
2023-02-15T04:33:08.616Z,-1.36
2023-02-15T04:35:37.016Z,-1.35
2023-02-15T04:38:05.388Z,-1.35
2023-02-15T04:40:33.758Z,-1.36
2023-02-15T04:43:02.154Z,-1.36
2023-02-15T04:45:30.648Z,-1.36
2023-02-15T04:47:59.091Z,-1.35
2023-02-15T04:50:27.535Z,-1.35
2023-02-15T04:52:55.902Z,-1.33
2023-02-15T04:55:24.310Z,-1.33
2023-02-15T04:57:52.741Z,-1.32
2023-02-15T05:00:21.269Z,-1.32
2023-02-15T05:02:49.592Z,-1.32
2023-02-15T05:05:18.234Z,-1.33
2023-02-15T05:07:46.803Z,-1.32
2023-02-15T05:10:15.451Z,-1.33
2023-02-15T05:12:43.839Z,-1.32
2023-02-15T05:15:12.127Z,-1.34
2023-02-15T05:17:40.511Z,-1.34
2023-02-15T05:20:09.436Z,-1.35
2023-02-15T05:22:37.912Z,-1.35
2023-02-15T05:25:25.432Z,-1.36
2023-02-15T05:28:12.694Z,-1.37
2023-02-15T05:30:41.279Z,-1.37
2023-02-15T05:33:09.957Z,-1.40
2023-02-15T05:35:38.348Z,-1.41
2023-02-15T05:38:06.840Z,-1.41
2023-02-15T05:40:35.666Z,-1.42
2023-02-15T05:43:04.039Z,-1.43
2023-02-15T05:45:32.460Z,-1.44
2023-02-15T05:48:00.919Z,-1.44
2023-02-15T05:50:29.380Z,-1.45
2023-02-15T05:52:57.722Z,-1.45
2023-02-15T05:55:26.163Z,-1.45
2023-02-15T05:57:54.458Z,-1.46
2023-02-15T06:00:23.080Z,-1.47
2023-02-15T06:02:51.363Z,-1.47
2023-02-15T06:05:19.798Z,-1.49
2023-02-15T06:07:48.140Z,-1.48
2023-02-15T06:10:16.786Z,-1.48
2023-02-15T06:12:46.139Z,-1.47
2023-02-15T06:15:15.122Z,-1.45
2023-02-15T06:17:43.876Z,-1.44
2023-02-15T06:20:13.259Z,-1.42
2023-02-15T06:22:41.638Z,-1.40
2023-02-15T06:25:12.283Z,-1.38
2023-02-15T06:27:43.691Z,-1.35
2023-02-15T06:30:13.104Z,-1.32
2023-02-15T06:32:41.973Z,-1.28
2023-02-15T06:35:10.438Z,-1.25
2023-02-15T06:37:39.426Z,-1.21
2023-02-15T06:40:09.357Z,-1.18
2023-02-15T06:42:38.052Z,-1.15
2023-02-15T06:45:11.919Z,-1.12
2023-02-15T06:47:40.644Z,-1.10
2023-02-15T06:50:10.347Z,-1.06
2023-02-15T06:52:38.852Z,-1.03
2023-02-15T06:55:07.623Z,-0.99
2023-02-15T06:57:36.065Z,-0.95
2023-02-15T07:00:05.952Z,-0.90
2023-02-15T07:02:34.585Z,-0.85
2023-02-15T07:05:03.797Z,-0.79
2023-02-15T07:07:34.120Z,-0.72
2023-02-15T07:10:03.089Z,-0.63
2023-02-15T07:12:43.811Z,-0.54
2023-02-15T07:15:16.672Z,-0.45
2023-02-15T07:17:45.651Z,-0.36
2023-02-15T07:20:22.452Z,-0.26
2023-02-15T07:22:51.610Z,-0.16
2023-02-15T07:25:20.322Z,-0.07
2023-02-15T07:27:48.876Z,0.02
2023-02-15T07:30:18.166Z,0.11
2023-02-15T07:33:05.990Z,0.19
2023-02-15T07:35:35.272Z,0.28
2023-02-15T07:38:03.730Z,0.37
2023-02-15T07:40:32.095Z,0.44
2023-02-15T07:43:00.553Z,0.52
2023-02-15T07:45:28.924Z,0.59
2023-02-15T07:47:57.288Z,0.67
2023-02-15T07:50:25.712Z,0.74
2023-02-15T07:52:54.217Z,0.81
2023-02-15T07:55:22.677Z,0.89
2023-02-15T07:57:51.862Z,0.96
2023-02-15T08:00:25.740Z,1.03
2023-02-15T08:03:16.232Z,1.12
2023-02-15T08:05:45.965Z,1.22
2023-02-15T08:08:30.685Z,1.30
2023-02-15T08:11:26.302Z,1.41
2023-02-15T08:14:04.678Z,1.52
2023-02-15T08:16:55.859Z,1.60
2023-02-15T08:19:28.504Z,1.71
2023-02-15T08:22:01.054Z,1.81
2023-02-15T08:24:33.551Z,1.92
2023-02-15T08:27:06.012Z,2.04
2023-02-15T08:29:36.980Z,2.15
2023-02-15T08:32:10.855Z,2.28
2023-02-15T08:34:42.725Z,2.42
2023-02-15T08:37:11.337Z,2.56
2023-02-15T08:39:39.620Z,2.71
2023-02-15T08:42:07.945Z,2.87
2023-02-15T08:44:36.279Z,3.04
2023-02-15T08:47:05.064Z,3.19
2023-02-15T08:49:33.521Z,3.34
2023-02-15T08:52:01.938Z,3.52
2023-02-15T08:54:30.636Z,3.71
2023-02-15T08:57:00.537Z,3.90
2023-02-15T08:59:28.928Z,4.11
2023-02-15T09:01:57.316Z,4.33
2023-02-15T09:04:25.651Z,4.55
2023-02-15T09:06:54.052Z,4.80
2023-02-15T09:09:23.010Z,5.03
2023-02-15T09:11:57.904Z,5.25
2023-02-15T09:14:28.417Z,5.51
2023-02-15T09:16:57.268Z,5.76
2023-02-15T09:19:26.105Z,6.02
2023-02-15T09:21:55.057Z,6.26
2023-02-15T09:24:23.598Z,6.52
2023-02-15T09:26:52.046Z,6.77
2023-02-15T09:29:21.245Z,7.03
2023-02-15T09:31:51.853Z,7.23
2023-02-15T09:34:23.064Z,7.43
2023-02-15T09:36:52.791Z,7.63
2023-02-15T09:39:25.811Z,7.87
2023-02-15T09:42:15.976Z,8.11
2023-02-15T09:44:52.749Z,8.34
2023-02-15T09:48:02.537Z,8.54
2023-02-15T09:50:44.529Z,8.78
2023-02-15T09:53:44.579Z,8.95
2023-02-15T09:56:26.652Z,9.15
2023-02-15T09:59:17.435Z,9.29
2023-02-15T10:01:57.886Z,9.46
2023-02-15T10:04:39.808Z,9.57
2023-02-15T10:07:27.319Z,9.70
2023-02-15T10:10:15.373Z,9.82
2023-02-15T10:13:03.481Z,9.97
2023-02-15T10:16:15.921Z,10.17
2023-02-15T10:19:28.740Z,10.35
2023-02-15T10:22:11.628Z,10.58
2023-02-15T10:25:05.067Z,10.74
2023-02-15T10:27:40.112Z,10.84
2023-02-15T10:30:47.475Z,10.98
2023-02-15T10:33:43.369Z,11.17
2023-02-15T10:36:41.294Z,11.34
2023-02-15T10:39:29.221Z,11.52
2023-02-15T10:42:21.147Z,11.70
2023-02-15T10:45:19.047Z,11.80
2023-02-15T10:48:17.790Z,11.92
2023-02-15T10:51:01.692Z,12.05
2023-02-15T10:53:51.606Z,12.20
2023-02-15T10:56:44.435Z,12.38
2023-02-15T10:59:24.974Z,12.60
2023-02-15T11:02:08.581Z,12.72
2023-02-15T11:04:55.569Z,12.81
2023-02-15T11:07:36.655Z,12.88
2023-02-15T11:10:32.089Z,12.95
2023-02-15T11:13:10.769Z,13.06
2023-02-15T11:16:04.424Z,13.23
2023-02-15T11:18:44.888Z,13.39
2023-02-15T11:21:27.152Z,13.53
2023-02-15T11:24:10.688Z,13.67
2023-02-15T11:26:45.586Z,13.86
2023-02-15T11:30:10.289Z,14.06
2023-02-15T11:32:42.306Z,14.24
2023-02-15T11:35:10.636Z,14.36
2023-02-15T11:38:11.130Z,14.48
2023-02-15T11:40:48.938Z,14.60
2023-02-15T11:43:41.555Z,14.67
2023-02-15T11:46:13.696Z,14.69
2023-02-15T11:48:43.463Z,14.77
2023-02-15T11:51:24.331Z,14.88
2023-02-15T11:53:53.065Z,14.97
2023-02-15T11:56:27.226Z,15.13
2023-02-15T11:58:57.253Z,15.27
2023-02-15T12:01:44.309Z,15.34
2023-02-15T12:04:25.972Z,15.41
2023-02-15T12:07:03.160Z,15.53
2023-02-15T12:09:54.968Z,15.65
2023-02-15T12:12:32.098Z,15.82
2023-02-15T12:15:05.472Z,15.94
2023-02-15T12:17:40.138Z,16.00
2023-02-15T12:20:35.504Z,16.14
2023-02-15T12:23:12.577Z,16.21
2023-02-15T12:25:52.929Z,16.24
2023-02-15T12:28:35.011Z,16.29
2023-02-15T12:31:10.721Z,16.33
2023-02-15T12:33:47.043Z,16.40
2023-02-15T12:36:20.026Z,16.55
2023-02-15T12:39:14.012Z,16.69
2023-02-15T12:41:54.971Z,16.75
2023-02-15T12:44:35.563Z,16.82
2023-02-15T12:47:06.228Z,17.00
2023-02-15T12:49:39.647Z,17.14
2023-02-15T12:52:18.923Z,17.17
2023-02-15T12:54:48.351Z,17.19
2023-02-15T12:57:27.326Z,17.24
2023-02-15T13:00:15.922Z,17.25
2023-02-15T13:02:57.752Z,17.26
2023-02-15T13:05:39.653Z,17.27
2023-02-15T13:08:32.528Z,17.30
2023-02-15T13:11:04.614Z,17.30
2023-02-15T13:13:39.814Z,17.29
2023-02-15T13:16:15.202Z,17.28
2023-02-15T13:18:46.404Z,17.27
2023-02-15T13:21:24.662Z,17.27
2023-02-15T13:24:01.333Z,17.21
2023-02-15T13:26:33.548Z,17.21
2023-02-15T13:29:13.859Z,17.26
2023-02-15T13:31:43.973Z,17.32
2023-02-15T13:34:20.782Z,17.35
2023-02-15T13:37:09.615Z,17.40
2023-02-15T13:40:03.213Z,17.45
2023-02-15T13:42:51.492Z,17.56
2023-02-15T13:45:52.139Z,17.60
2023-02-15T13:48:51.282Z,17.70
2023-02-15T13:52:01.526Z,17.73
2023-02-15T13:55:39.805Z,17.73
2023-02-15T13:58:49.187Z,17.79
2023-02-15T14:01:40.547Z,17.90
2023-02-15T14:04:46.647Z,18.01
2023-02-15T14:07:53.151Z,18.11
2023-02-15T14:10:39.565Z,18.25
2023-02-15T14:13:26.127Z,18.44
2023-02-15T14:16:22.431Z,18.61
2023-02-15T14:19:09.797Z,18.76
2023-02-15T14:22:06.075Z,18.85
2023-02-15T14:25:14.878Z,19.05
2023-02-15T14:28:11.569Z,19.14
2023-02-15T14:30:44.407Z,19.08
2023-02-15T14:33:16.443Z,19.03
2023-02-15T14:35:45.060Z,19.06
2023-02-15T14:38:27.288Z,19.10
2023-02-15T14:41:12.863Z,19.18
2023-02-15T14:44:11.957Z,19.24
2023-02-15T14:46:52.856Z,19.29
2023-02-15T14:49:29.876Z,19.38
2023-02-15T14:52:03.354Z,19.41
2023-02-15T14:54:33.671Z,19.44
2023-02-15T14:57:02.327Z,19.51
2023-02-15T14:59:33.427Z,19.59
2023-02-15T15:02:16.488Z,19.65
2023-02-15T15:05:10.567Z,19.68
2023-02-15T15:07:44.960Z,19.68
2023-02-15T15:10:18.952Z,19.63
2023-02-15T15:12:50.124Z,19.48
2023-02-15T15:15:21.484Z,19.32
2023-02-15T15:17:57.760Z,19.02
2023-02-15T15:20:52.613Z,18.68
2023-02-15T15:23:23.895Z,18.39
2023-02-15T15:25:57.696Z,18.19
2023-02-15T15:28:35.091Z,18.10
2023-02-15T15:31:31.621Z,18.09
2023-02-15T15:34:46.695Z,18.08
2023-02-15T15:38:03.204Z,17.83
2023-02-15T15:40:49.164Z,17.07
2023-02-15T15:43:47.801Z,16.29
2023-02-15T15:46:59.410Z,15.60
2023-02-15T15:49:35.738Z,14.89
2023-02-15T15:52:18.106Z,14.34
2023-02-15T15:54:53.458Z,13.78
2023-02-15T15:57:40.304Z,13.27
2023-02-15T16:00:36.256Z,12.76
2023-02-15T16:03:05.428Z,12.21
2023-02-15T16:05:40.634Z,11.74
2023-02-15T16:08:09.191Z,11.31
2023-02-15T16:10:39.009Z,10.92
2023-02-15T16:13:08.254Z,10.57
2023-02-15T16:15:47.993Z,10.26
2023-02-15T16:18:21.519Z,9.95
2023-02-15T16:20:56.732Z,9.66
2023-02-15T16:23:56.134Z,9.36
2023-02-15T16:27:00.226Z,9.04
2023-02-15T16:29:35.177Z,8.72
2023-02-15T16:32:29.059Z,8.49
2023-02-15T16:35:01.172Z,8.26
2023-02-15T16:37:36.154Z,8.07
2023-02-15T16:40:05.312Z,7.88
2023-02-15T16:42:35.738Z,7.72
2023-02-15T16:45:18.162Z,7.54
2023-02-15T16:47:54.934Z,7.37
2023-02-15T16:50:37.487Z,7.19
2023-02-15T16:53:15.139Z,7.03
2023-02-15T16:55:43.845Z,6.87
2023-02-15T16:58:18.706Z,6.74
2023-02-15T17:00:47.456Z,6.58
2023-02-15T17:03:25.967Z,6.44
2023-02-15T17:05:58.917Z,6.29
2023-02-15T17:08:45.406Z,6.16
2023-02-15T17:11:22.930Z,6.02
2023-02-15T17:14:03.671Z,5.89
2023-02-15T17:16:49.970Z,5.76
2023-02-15T17:19:51.466Z,5.61
2023-02-15T17:22:27.843Z,5.47
2023-02-15T17:25:02.331Z,5.34
2023-02-15T17:27:34.114Z,5.22
2023-02-15T17:30:18.712Z,5.09
2023-02-15T17:33:03.030Z,4.96
2023-02-15T17:35:34.416Z,4.83
2023-02-15T17:38:05.540Z,4.70
2023-02-15T17:40:36.813Z,4.56
2023-02-15T17:43:05.210Z,4.42
2023-02-15T17:45:45.333Z,4.28
2023-02-15T17:48:37.490Z,4.13
2023-02-15T17:51:12.449Z,3.99
2023-02-15T17:54:02.393Z,3.87
2023-02-15T17:56:30.759Z,3.77
2023-02-15T17:58:59.089Z,3.68
2023-02-15T18:01:46.326Z,3.62
2023-02-15T18:04:34.496Z,3.55
2023-02-15T18:07:21.706Z,3.50
2023-02-15T18:10:08.785Z,3.45
2023-02-15T18:12:38.604Z,3.40
2023-02-15T18:15:10.875Z,3.34
2023-02-15T18:17:45.802Z,3.28
2023-02-15T18:20:24.778Z,3.25
2023-02-15T18:22:53.663Z,3.19
2023-02-15T18:25:25.473Z,3.15
2023-02-15T18:27:55.396Z,3.11
2023-02-15T18:30:26.766Z,3.07
2023-02-15T18:32:57.700Z,3.03
2023-02-15T18:35:31.543Z,2.96
2023-02-15T18:38:01.831Z,2.90
2023-02-15T18:40:30.338Z,2.84
2023-02-15T18:42:58.690Z,2.79
2023-02-15T18:45:32.982Z,2.72
2023-02-15T18:48:01.685Z,2.65
2023-02-15T18:50:34.460Z,2.60
2023-02-15T18:53:06.034Z,2.55
2023-02-15T18:55:35.555Z,2.50
2023-02-15T18:58:04.217Z,2.45
2023-02-15T19:00:35.453Z,2.39
2023-02-15T19:03:03.799Z,2.34
2023-02-15T19:05:33.347Z,2.29
2023-02-15T19:08:02.813Z,2.25
2023-02-15T19:10:33.802Z,2.21
2023-02-15T19:13:02.153Z,2.16
2023-02-15T19:15:30.895Z,2.11
2023-02-15T19:17:59.279Z,2.05
2023-02-15T19:20:43.858Z,1.99
2023-02-15T19:23:19.429Z,1.92
2023-02-15T19:25:49.780Z,1.87
2023-02-15T19:28:44.980Z,1.81
2023-02-15T19:31:13.828Z,1.73
2023-02-15T19:33:42.197Z,1.67
2023-02-15T19:36:17.926Z,1.62
2023-02-15T19:38:51.828Z,1.58
2023-02-15T19:41:34.344Z,1.55
2023-02-15T19:44:02.710Z,1.51
2023-02-15T19:46:31.375Z,1.48
2023-02-15T19:48:59.888Z,1.45
2023-02-15T19:51:28.299Z,1.42
2023-02-15T19:53:57.798Z,1.40
2023-02-15T19:56:27.792Z,1.38
2023-02-15T19:58:57.824Z,1.34
2023-02-15T20:01:26.296Z,1.31
2023-02-15T20:03:55.644Z,1.28
2023-02-15T20:06:24.098Z,1.23
2023-02-15T20:08:53.464Z,1.19
2023-02-15T20:11:21.921Z,1.18
2023-02-15T20:13:50.247Z,1.15
2023-02-15T20:16:18.635Z,1.13
2023-02-15T20:18:46.960Z,1.11
2023-02-15T20:21:16.364Z,1.09
2023-02-15T20:23:45.772Z,1.06
2023-02-15T20:26:18.388Z,1.04
2023-02-15T20:28:47.200Z,1.01
2023-02-15T20:31:20.277Z,1.00
2023-02-15T20:33:49.456Z,0.96
2023-02-15T20:36:21.420Z,0.95
2023-02-15T20:38:49.942Z,0.92
2023-02-15T20:41:37.392Z,0.91
2023-02-15T20:44:22.741Z,0.90
2023-02-15T20:46:55.414Z,0.89
2023-02-15T20:49:25.883Z,0.88
2023-02-15T20:51:56.324Z,0.86
2023-02-15T20:54:33.439Z,0.84
2023-02-15T20:57:02.315Z,0.83
2023-02-15T20:59:34.387Z,0.83
2023-02-15T21:02:23.043Z,0.82
2023-02-15T21:04:51.753Z,0.81
2023-02-15T21:07:22.356Z,0.80
2023-02-15T21:09:52.355Z,0.79
2023-02-15T21:12:22.071Z,0.78
2023-02-15T21:14:50.716Z,0.76
2023-02-15T21:17:19.188Z,0.75
2023-02-15T21:19:47.562Z,0.74
2023-02-15T21:22:16.714Z,0.73
2023-02-15T21:24:51.166Z,0.72
2023-02-15T21:27:19.675Z,0.71
2023-02-15T21:29:48.069Z,0.69
2023-02-15T21:32:16.657Z,0.68
2023-02-15T21:34:45.049Z,0.67
2023-02-15T21:37:35.493Z,0.65
2023-02-15T21:40:06.988Z,0.64
2023-02-15T21:42:53.984Z,0.61
2023-02-15T21:45:40.830Z,0.59
2023-02-15T21:48:09.436Z,0.56
2023-02-15T21:50:57.079Z,0.54
2023-02-15T21:53:33.849Z,0.51
2023-02-15T21:56:06.150Z,0.48
2023-02-15T21:58:36.866Z,0.45
2023-02-15T22:01:06.102Z,0.40
2023-02-15T22:03:38.171Z,0.37
2023-02-15T22:06:06.857Z,0.35
2023-02-15T22:08:35.681Z,0.32
2023-02-15T22:11:14.588Z,0.31
2023-02-15T22:13:44.100Z,0.29
2023-02-15T22:16:23.079Z,0.25
2023-02-15T22:18:51.535Z,0.22
2023-02-15T22:21:20.869Z,0.18
2023-02-15T22:23:49.293Z,0.16
2023-02-15T22:26:24.531Z,0.12
2023-02-15T22:28:53.169Z,0.10
2023-02-15T22:31:23.382Z,0.08
2023-02-15T22:33:51.947Z,0.06
2023-02-15T22:36:30.400Z,0.05
2023-02-15T22:38:58.787Z,0.03
2023-02-15T22:41:31.199Z,-0.00
2023-02-15T22:44:00.104Z,-0.05
2023-02-15T22:46:28.758Z,-0.06
2023-02-15T22:48:57.123Z,-0.08
2023-02-15T22:51:25.594Z,-0.11
2023-02-15T22:53:54.045Z,-0.14
2023-02-15T22:56:37.036Z,-0.17
2023-02-15T22:59:28.912Z,-0.20
2023-02-15T23:01:58.072Z,-0.23
2023-02-15T23:04:29.472Z,-0.26
2023-02-15T23:07:00.668Z,-0.28
2023-02-15T23:09:29.038Z,-0.29
2023-02-15T23:11:57.411Z,-0.31
2023-02-15T23:14:35.048Z,-0.32
2023-02-15T23:17:03.530Z,-0.34
2023-02-15T23:19:32.229Z,-0.36
2023-02-15T23:22:00.681Z,-0.37
2023-02-15T23:24:34.458Z,-0.40
2023-02-15T23:27:21.433Z,-0.42
2023-02-15T23:29:49.896Z,-0.45
2023-02-15T23:32:20.392Z,-0.47
2023-02-15T23:34:48.784Z,-0.49
2023-02-15T23:37:17.947Z,-0.51
2023-02-15T23:40:04.706Z,-0.53
2023-02-15T23:42:35.312Z,-0.56
2023-02-15T23:45:06.186Z,-0.57
2023-02-15T23:47:54.109Z,-0.58
2023-02-15T23:50:29.659Z,-0.60
2023-02-15T23:52:58.727Z,-0.62
2023-02-15T23:55:41.150Z,-0.63
2023-02-15T23:58:21.944Z,-0.64
